Terminal Aerodrome Forecast
Issued by NWS

Home | Current Version | Previous Version | Text Only | Print | Product List | Glossary On
Versions: 1 2 3 4 5 6 7 8 9 10 11 12 13 14 15 16
000
FTUS46 KSEW 021735
TAFHQM
TAF
KHQM 021735Z 0218/0318 14013KT 4SM -RA BR SCT013 BKN022 OVC045
     FM030000 22014KT 5SM -SHRA BKN010 OVC020
     FM030500 25009KT P6SM -SHRA SCT010 BKN025 OVC050
     FM030900 23007KT P6SM VCSH SCT025 OVC050=

USA.gov is the U.S. government's official web portal to all federal, state and local government web resources and services.